Time;durP1;ratioP1;P1;durP2;ratioP2;P2;SDS_P1;SDS_P2;PMS_P1;PMS_P2;Temp;Humidity;BMP_temperature;BMP_pressure;BME280_temperature;BME280_humidity;BME280_pressure;Samples;Min_cycle;Max_cycle;Signal;HPM_P1;HPM_P2
2021/11/29 18:53:47;;;;;;;11.40;8.70;;;;;;;1.74;84.43;98102.59;100217;1347;638526;-67
2021/11/29 18:56:19;;;;;;;13.70;9.40;;;;;;;1.75;84.34;98099.98;103055;1322;136776;-67
2021/11/29 18:58:51;;;;;;;12.40;9.10;;;;;;;1.73;84.19;98101.41;103094;1326;93235;-68
2021/11/29 19:01:23;;;;;;;11.30;8.70;;;;;;;1.74;84.07;98112.19;103737;1316;137290;-68
2021/11/29 19:03:56;;;;;;;12.70;9.10;;;;;;;1.75;83.98;98118.48;103810;1321;109046;-68
2021/11/29 19:06:28;;;;;;;17.30;11.00;;;;;;;1.76;84.13;98109.73;103758;1321;230181;-66
2021/11/29 19:09:00;;;;;;;9.60;7.50;;;;;;;1.78;83.94;98123.52;104005;1318;137454;-66
2021/11/29 19:11:33;;;;;;;13.20;8.20;;;;;;;1.81;83.91;98127.58;104174;1320;93112;-67
2021/11/29 19:14:06;;;;;;;10.70;7.60;;;;;;;1.84;83.82;98134.18;104064;1318;136874;-66
2021/11/29 19:16:38;;;;;;;14.10;7.80;;;;;;;1.85;83.88;98140.30;103809;1318;108953;-66
2021/11/29 19:19:10;;;;;;;13.30;7.90;;;;;;;1.85;83.72;98149.02;102722;1318;108787;-68
2021/11/29 19:21:43;;;;;;;12.60;8.40;;;;;;;1.85;83.74;98153.86;102648;1318;137012;-68
2021/11/29 19:24:15;;;;;;;10.00;7.80;;;;;;;1.85;83.82;98155.56;102754;1318;96187;-69
2021/11/29 19:26:48;;;;;;;10.20;7.50;;;;;;;1.84;83.86;98158.84;102508;1321;137441;-68
2021/11/29 19:29:20;;;;;;;15.00;8.10;;;;;;;1.84;83.72;98163.13;102676;1318;109035;-68
2021/11/29 19:31:53;;;;;;;10.60;6.80;;;;;;;1.84;83.69;98167.41;102745;1315;137708;-68
2021/11/29 19:34:25;;;;;;;13.50;7.70;;;;;;;1.85;83.74;98171.30;102940;1316;95238;-69
2021/11/29 19:36:58;;;;;;;11.40;8.00;;;;;;;1.86;83.72;98176.60;102930;1313;95180;-67
2021/11/29 19:39:31;;;;;;;11.70;8.20;;;;;;;1.87;83.87;98186.01;102814;1315;137381;-67
2021/11/29 19:42:05;;;;;;;13.30;8.20;;;;;;;1.85;83.86;98187.06;102999;1315;109765;-68
2021/11/29 19:44:40;;;;;;;9.40;7.60;;;;;;;1.83;83.68;98189.03;104213;1314;137668;-68
2021/11/29 19:47:12;;;;;;;12.90;7.80;;;;;;;1.81;83.63;98191.67;103532;1321;93897;-67
2021/11/29 19:49:44;;;;;;;10.90;7.20;;;;;;;1.81;83.55;98197.14;103564;1316;138668;-67
2021/11/29 19:52:18;;;;;;;9.70;6.90;;;;;;;1.80;83.52;98198.36;102920;1313;109992;-67
2021/11/29 19:54:51;;;;;;;10.20;6.80;;;;;;;1.82;83.42;98199.17;102989;1315;106934;-67
2021/11/29 19:57:25;;;;;;;11.10;7.70;;;;;;;1.84;83.25;98203.57;102815;1316;137012;-67
2021/11/29 19:59:59;;;;;;;10.30;7.40;;;;;;;1.86;83.28;98203.67;102908;1315;95167;-66
2021/11/29 20:02:32;;;;;;;10.80;7.70;;;;;;;1.85;83.09;98203.54;102932;1313;137938;-67
2021/11/29 20:05:19;;;;;;;9.30;7.00;;;;;;;1.80;83.08;98206.08;102922;1316;109912;-68
2021/11/29 20:07:52;;;;;;;10.20;7.00;;;;;;;1.78;83.10;98209.36;103331;1308;137555;-67
2021/11/29 20:10:26;;;;;;;12.70;7.50;;;;;;;1.76;83.13;98211.15;103387;1311;109213;-67
2021/11/29 20:12:59;;;;;;;10.40;7.20;;;;;;;1.76;83.23;98211.84;103190;1313;95230;-69
2021/11/29 20:15:39;;;;;;;10.80;7.40;;;;;;;1.78;83.28;98212.45;103196;1310;137006;-68
2021/11/29 20:18:23;;;;;;;13.30;8.00;;;;;;;1.79;83.33;98217.73;103279;1311;109716;-66
2021/11/29 20:20:56;;;;;;;;;;;;;;;1.79;83.28;98211.89;103231;1309;138492;-67
2021/11/29 20:23:30;;;;;;;10.10;8.10;;;;;;;1.78;83.17;98217.42;103342;1311;109209;-69
2021/11/29 20:26:03;;;;;;;11.10;7.90;;;;;;;1.74;83.33;98223.38;103253;1311;137197;-66
2021/11/29 20:28:36;;;;;;;13.20;8.60;;;;;;;1.74;83.35;98225.79;103326;1311;95147;-67
2021/11/29 20:31:13;;;;;;;13.50;8.90;;;;;;;1.72;83.41;98221.21;103452;1310;109918;-68
2021/11/29 20:33:47;;;;;;;12.90;9.00;;;;;;;1.72;83.52;98220.02;103215;1311;138143;-68
2021/11/29 20:36:20;;;;;;;14.30;8.90;;;;;;;1.75;83.60;98218.89;103423;1311;108784;-68
2021/11/29 20:38:53;;;;;;;14.90;9.60;;;;;;;1.78;83.74;98218.10;103359;1310;137438;-70
2021/11/29 20:41:27;;;;;;;14.30;10.40;;;;;;;1.85;83.71;98221.55;103322;1311;95173;-69
2021/11/29 20:44:02;;;;;;;16.30;10.50;;;;;;;1.88;83.70;98222.80;103347;1309;137766;-68
2021/11/29 20:46:35;;;;;;;15.90;11.80;;;;;;;1.86;83.55;98220.66;103408;1310;106873;-67
2021/11/29 20:49:09;;;;;;;15.30;10.40;;;;;;;1.82;83.50;98227.80;103378;1310;108875;-67
2021/11/29 20:51:43;;;;;;;16.80;11.40;;;;;;;1.79;83.46;98228.01;103219;1309;137727;-68
2021/11/29 20:54:17;;;;;;;14.40;10.30;;;;;;;1.79;83.57;98233.83;103345;1312;95155;-67
2021/11/29 20:56:50;;;;;;;13.90;9.80;;;;;;;1.78;83.43;98232.84;103200;1311;137833;-67
2021/11/29 20:59:23;;;;;;;14.80;10.10;;;;;;;1.77;83.42;98237.83;103318;1311;109032;-67
2021/11/29 21:01:55;;;;;;;16.60;11.50;;;;;;;1.74;83.50;98240.48;103203;1311;137469;-67
2021/11/29 21:04:28;;;;;;;15.60;11.10;;;;;;;1.74;83.35;98241.86;103133;1312;95333;-67
2021/11/29 21:07:00;;;;;;;17.50;12.00;;;;;;;1.70;83.37;98244.56;103250;1311;95281;-68
2021/11/29 21:09:33;;;;;;;18.10;11.20;;;;;;;1.64;83.30;98247.50;103221;1310;136972;-68
2021/11/29 21:12:08;;;;;;;17.60;11.20;;;;;;;1.62;83.39;98251.14;103270;1311;108878;-67
2021/11/29 21:14:41;;;;;;;14.80;10.40;;;;;;;1.59;83.35;98250.69;103197;1308;137966;-67
2021/11/29 21:17:14;;;;;;;15.80;10.90;;;;;;;1.60;83.58;98252.54;104534;1311;94074;-66
2021/11/29 21:19:50;;;;;;;16.10;10.60;;;;;;;1.61;83.65;98246.71;104662;1311;138990;-68
2021/11/29 21:22:24;;;;;;;16.10;11.60;;;;;;;1.64;83.68;98250.23;103928;1315;110348;-67
2021/11/29 21:25:00;;;;;;;17.20;12.70;;;;;;;1.67;83.70;98250.48;104775;1310;107721;-67
2021/11/29 21:27:32;;;;;;;18.70;13.10;;;;;;;1.68;83.69;98253.56;103971;1308;137216;-67
2021/11/29 21:30:06;;;;;;;19.70;13.50;;;;;;;1.66;83.54;98251.36;103438;1311;95133;-67
2021/11/29 21:32:38;;;;;;;18.20;13.80;;;;;;;1.66;83.55;98253.08;104475;1309;137912;-68
2021/11/29 21:35:10;;;;;;;20.10;14.20;;;;;;;1.66;83.59;98249.98;103323;1312;109265;-67
2021/11/29 21:37:52;;;;;;;21.20;14.10;;;;;;;1.65;83.60;98254.85;103168;1311;138920;-68
2021/11/29 21:40:27;;;;;;;18.60;13.20;;;;;;;1.66;83.69;98255.48;103698;1310;108991;-67
2021/11/29 21:42:59;;;;;;;22.40;13.20;;;;;;;1.68;83.59;98257.63;103229;1312;95180;-69
2021/11/29 21:45:32;;;;;;;17.30;12.40;;;;;;;1.68;83.61;98257.46;103265;1309;139445;-67
2021/11/29 21:48:06;;;;;;;16.50;12.30;;;;;;;1.70;83.62;98266.66;103435;1314;109464;-68
2021/11/29 21:50:38;;;;;;;17.90;12.30;;;;;;;1.71;83.61;98261.16;103229;1311;137975;-70
2021/11/29 21:53:10;;;;;;;18.20;13.60;;;;;;;1.74;83.48;98259.35;103280;1311;108797;-69
2021/11/29 21:55:43;;;;;;;21.60;14.20;;;;;;;1.74;83.38;98267.92;103225;1312;137488;-68
2021/11/29 21:58:16;;;;;;;21.20;14.70;;;;;;;1.71;83.22;98269.22;103370;1311;95256;-67
2021/11/29 22:00:48;;;;;;;20.20;13.60;;;;;;;1.64;83.28;98277.30;103227;1309;110159;-70
2021/11/29 22:03:21;;;;;;;16.60;11.80;;;;;;;1.61;83.42;98276.69;103128;1310;138522;-67
2021/11/29 22:05:53;;;;;;;13.10;10.30;;;;;;;1.60;83.42;98283.38;103119;1311;108844;-67
2021/11/29 22:08:26;;;;;;;14.20;9.50;;;;;;;1.59;83.45;98275.02;103222;1315;138101;-68
2021/11/29 22:10:58;;;;;;;12.40;9.50;;;;;;;1.58;83.32;98273.16;103377;1311;95151;-67
2021/11/29 22:13:31;;;;;;;12.10;8.50;;;;;;;1.56;83.34;98269.98;103298;1311;137032;-68
2021/11/29 22:16:04;;;;;;;11.50;8.70;;;;;;;1.53;83.24;98268.88;103396;1311;108867;-67
2021/11/29 22:18:36;;;;;;;11.10;8.80;;;;;;;1.51;83.27;98272.84;103363;1309;107745;-67
2021/11/29 22:21:08;;;;;;;10.50;8.30;;;;;;;1.48;83.28;98273.96;103290;1312;138072;-66
2021/11/29 22:23:40;;;;;;;10.80;8.00;;;;;;;1.47;83.33;98278.97;103402;1311;95147;-67
2021/11/29 22:26:13;;;;;;;12.60;8.40;;;;;;;1.48;83.37;98274.66;103282;1311;137836;-67
2021/11/29 22:28:48;;;;;;;12.00;8.20;;;;;;;1.48;83.45;98279.45;103211;1311;108494;-67
2021/11/29 22:31:20;;;;;;;11.30;7.80;;;;;;;1.49;83.35;98290.22;103325;1311;108900;-67
2021/11/29 22:33:55;;;;;;;12.10;8.20;;;;;;;1.52;83.47;98291.33;103163;1312;137321;-67
2021/11/29 22:36:27;;;;;;;13.20;8.70;;;;;;;1.57;83.57;98298.70;103326;1311;94589;-68
2021/11/29 22:38:59;;;;;;;12.80;9.10;;;;;;;1.59;83.32;98303.64;103186;1312;136813;-67
2021/11/29 22:41:31;;;;;;;13.10;9.60;;;;;;;1.57;83.19;98301.80;103403;1312;108965;-68
2021/11/29 22:44:03;;;;;;;13.10;8.60;;;;;;;1.53;83.08;98304.48;103366;1313;137251;-68
2021/11/29 22:46:36;;;;;;;12.30;8.30;;;;;;;1.48;83.05;98299.48;103332;1311;95262;-68
2021/11/29 22:49:09;;;;;;;16.30;10.00;;;;;;;1.48;83.16;98306.16;103217;1311;95572;-68
2021/11/29 22:51:41;;;;;;;10.10;7.70;;;;;;;1.50;83.21;98305.61;103428;1310;139028;-67
2021/11/29 22:54:13;;;;;;;10.60;7.60;;;;;;;1.50;83.30;98305.25;103404;1310;109782;-66
2021/11/29 22:56:46;;;;;;;11.90;8.40;;;;;;;1.55;83.42;98307.69;104043;1310;137431;-67
2021/11/29 22:59:18;;;;;;;12.80;8.60;;;;;;;1.61;83.57;98309.40;103489;1311;95190;-67
2021/11/29 23:01:50;;;;;;;12.90;9.40;;;;;;;1.62;83.26;98306.46;103306;1312;137686;-67
2021/11/29 23:04:24;;;;;;;15.90;10.40;;;;;;;1.60;83.15;98305.64;103321;1311;109692;-67
2021/11/29 23:06:57;;;;;;;12.10;8.90;;;;;;;1.60;83.23;98314.06;103401;1310;108821;-67
2021/11/29 23:09:29;;;;;;;11.60;8.70;;;;;;;1.57;83.09;98313.80;103304;1311;139060;-67
2021/11/29 23:12:01;;;;;;;12.20;8.00;;;;;;;1.58;83.17;98309.83;103359;1310;96497;-67
2021/11/29 23:14:35;;;;;;;11.40;7.60;;;;;;;1.58;83.04;98308.61;103317;1311;138259;-66
2021/11/29 23:17:08;;;;;;;11.90;8.20;;;;;;;1.58;82.98;98313.59;103632;1313;111101;-66
2021/11/29 23:19:40;;;;;;;10.10;7.30;;;;;;;1.60;82.94;98317.80;103534;1312;138635;-67
2021/11/29 23:22:12;;;;;;;11.40;8.00;;;;;;;1.60;82.82;98321.77;103416;1309;107732;-66
2021/11/29 23:24:45;;;;;;;13.50;8.30;;;;;;;1.60;82.84;98328.77;103424;1312;96678;-67
2021/11/29 23:27:18;;;;;;;13.10;7.60;;;;;;;1.60;82.88;98331.16;103312;1317;137108;-67
2021/11/29 23:29:50;;;;;;;10.20;7.50;;;;;;;1.57;82.55;98331.42;103596;1309;110073;-67
2021/11/29 23:32:22;;;;;;;9.50;6.80;;;;;;;1.56;82.60;98333.69;103292;1313;138810;-67
2021/11/29 23:34:54;;;;;;;8.80;6.40;;;;;;;1.57;82.44;98334.19;103406;1309;108946;-67
2021/11/29 23:37:26;;;;;;;10.20;6.20;;;;;;;1.57;82.24;98338.46;103456;1312;96612;-67
2021/11/29 23:39:58;;;;;;;8.30;6.10;;;;;;;1.58;82.08;98342.38;103330;1311;138518;-67
2021/11/29 23:42:30;;;;;;;9.90;5.90;;;;;;;1.58;82.11;98343.73;103424;1312;111357;-67
2021/11/29 23:45:02;;;;;;;10.50;6.80;;;;;;;1.58;82.12;98350.06;103442;1308;137504;-67
2021/11/29 23:47:40;;;;;;;9.40;6.60;;;;;;;1.59;82.08;98350.23;103602;1315;107854;-67
2021/11/29 23:50:12;;;;;;;9.40;6.70;;;;;;;1.58;82.08;98357.11;103478;1309;137462;-67
2021/11/29 23:52:46;;;;;;;9.40;6.60;;;;;;;1.56;82.06;98360.41;103329;1310;96583;-66
2021/11/29 23:55:18;;;;;;;10.00;6.50;;;;;;;1.55;81.97;98359.73;103409;1311;111121;-67
2021/11/29 23:57:50;;;;;;;8.30;5.90;;;;;;;1.54;82.11;98369.19;103288;1311;137942;-66
